sensor_id;sensor_type;location;lat;lon;timestamp;pressure;altitude;pressure_sealevel;temperature;humidity
62725;BME280;49026;52.600;4.694;2024-02-28T00:02:17;101984.25;;;4.91;83.69
62725;BME280;49026;52.600;4.694;2024-02-28T00:04:43;101984.25;;;4.91;83.32
62725;BME280;49026;52.600;4.694;2024-02-28T00:07:08;101985.16;;;4.93;83.45
62725;BME280;49026;52.600;4.694;2024-02-28T00:09:33;101986.88;;;4.94;83.61
62725;BME280;49026;52.600;4.694;2024-02-28T00:11:59;101975.59;;;4.95;83.65
62725;BME280;49026;52.600;4.694;2024-02-28T00:14:24;101976.47;;;4.98;84.08
62725;BME280;49026;52.600;4.694;2024-02-28T00:16:54;101978.22;;;4.99;83.73
62725;BME280;49026;52.600;4.694;2024-02-28T00:19:19;101975.59;;;5.01;84.24
62725;BME280;49026;52.600;4.694;2024-02-28T00:21:45;101974.72;;;5.00;83.78
62725;BME280;49026;52.600;4.694;2024-02-28T00:24:10;101973.88;;;4.98;83.83
62725;BME280;49026;52.600;4.694;2024-02-28T00:26:37;101981.66;;;4.97;83.85
62725;BME280;49026;52.600;4.694;2024-02-28T00:29:07;101977.34;;;4.93;83.71
62725;BME280;49026;52.600;4.694;2024-02-28T00:31:32;101976.44;;;4.91;83.76
62725;BME280;49026;52.600;4.694;2024-02-28T00:33:57;101979.06;;;4.92;84.46
62725;BME280;49026;52.600;4.694;2024-02-28T00:36:28;101975.59;;;4.95;84.13
62725;BME280;49026;52.600;4.694;2024-02-28T00:38:53;101972.13;;;5.00;84.60
62725;BME280;49026;52.600;4.694;2024-02-28T00:41:18;101977.34;;;5.05;84.56
62725;BME280;49026;52.600;4.694;2024-02-28T00:43:44;101973.00;;;5.10;84.77
62725;BME280;49026;52.600;4.694;2024-02-28T00:46:09;101972.13;;;5.14;84.39
62725;BME280;49026;52.600;4.694;2024-02-28T00:48:38;101970.41;;;5.19;84.80
62725;BME280;49026;52.600;4.694;2024-02-28T00:51:07;101971.28;;;5.26;85.00
62725;BME280;49026;52.600;4.694;2024-02-28T00:53:36;101963.44;;;5.32;84.77
62725;BME280;49026;52.600;4.694;2024-02-28T00:56:01;101970.41;;;5.38;84.49
62725;BME280;49026;52.600;4.694;2024-02-28T00:58:29;101965.16;;;5.43;85.58
62725;BME280;49026;52.600;4.694;2024-02-28T01:00:56;101973.84;;;5.49;85.47
62725;BME280;49026;52.600;4.694;2024-02-28T01:03:22;101970.41;;;5.53;85.55
62725;BME280;49026;52.600;4.694;2024-02-28T01:05:49;101967.75;;;5.60;85.50
62725;BME280;49026;52.600;4.694;2024-02-28T01:08:14;101969.50;;;5.65;85.57
62725;BME280;49026;52.600;4.694;2024-02-28T01:10:43;101964.28;;;5.71;86.07
62725;BME280;49026;52.600;4.694;2024-02-28T01:13:13;101972.97;;;5.77;85.36
62725;BME280;49026;52.600;4.694;2024-02-28T01:15:44;101966.88;;;5.82;86.18
62725;BME280;49026;52.600;4.694;2024-02-28T01:18:14;101971.19;;;5.89;85.73
62725;BME280;49026;52.600;4.694;2024-02-28T01:20:39;101966.81;;;5.94;85.93
62725;BME280;49026;52.600;4.694;2024-02-28T01:23:04;101964.22;;;6.01;85.41
62725;BME280;49026;52.600;4.694;2024-02-28T01:25:30;101968.59;;;6.02;85.40
62725;BME280;49026;52.600;4.694;2024-02-28T01:27:56;101963.38;;;5.99;85.90
62725;BME280;49026;52.600;4.694;2024-02-28T01:30:23;101960.75;;;5.99;86.27
62725;BME280;49026;52.600;4.694;2024-02-28T01:32:48;101963.38;;;5.99;86.64
62725;BME280;49026;52.600;4.694;2024-02-28T01:35:18;101963.38;;;5.99;87.00
62725;BME280;49026;52.600;4.694;2024-02-28T01:37:43;101969.44;;;5.98;86.56
62725;BME280;49026;52.600;4.694;2024-02-28T01:40:12;101972.94;;;5.93;86.42
62725;BME280;49026;52.600;4.694;2024-02-28T01:42:42;101966.84;;;5.91;86.94
62725;BME280;49026;52.600;4.694;2024-02-28T01:45:15;101966.84;;;5.88;87.23
62725;BME280;49026;52.600;4.694;2024-02-28T01:47:41;101971.19;;;5.86;86.61
62725;BME280;49026;52.600;4.694;2024-02-28T01:50:09;101959.03;;;5.84;87.81
62725;BME280;49026;52.600;4.694;2024-02-28T01:52:35;101959.03;;;5.78;87.37
62725;BME280;49026;52.600;4.694;2024-02-28T01:55:04;101957.31;;;5.70;88.31
62725;BME280;49026;52.600;4.694;2024-02-28T01:57:31;101959.06;;;5.62;87.53
62725;BME280;49026;52.600;4.694;2024-02-28T02:00:00;101963.44;;;5.60;87.93
62725;BME280;49026;52.600;4.694;2024-02-28T02:02:27;101958.22;;;5.60;88.97
62725;BME280;49026;52.600;4.694;2024-02-28T02:04:53;101956.47;;;5.57;88.66
62725;BME280;49026;52.600;4.694;2024-02-28T02:07:19;101954.72;;;5.60;88.43
62725;BME280;49026;52.600;4.694;2024-02-28T02:09:45;101948.66;;;5.61;88.60
62725;BME280;49026;52.600;4.694;2024-02-28T02:12:13;101955.59;;;5.63;88.72
62725;BME280;49026;52.600;4.694;2024-02-28T02:14:39;101954.72;;;5.63;89.31
62725;BME280;49026;52.600;4.694;2024-02-28T02:17:04;101946.91;;;5.66;88.98
62725;BME280;49026;52.600;4.694;2024-02-28T02:19:32;101950.34;;;5.69;89.24
62725;BME280;49026;52.600;4.694;2024-02-28T02:21:58;101951.25;;;5.70;89.09
62725;BME280;49026;52.600;4.694;2024-02-28T02:24:23;101952.97;;;5.72;88.96
62725;BME280;49026;52.600;4.694;2024-02-28T02:26:49;101959.03;;;5.76;89.13
62725;BME280;49026;52.600;4.694;2024-02-28T02:29:17;101953.81;;;5.81;89.07
62725;BME280;49026;52.600;4.694;2024-02-28T02:31:42;101953.81;;;5.84;88.66
62725;BME280;49026;52.600;4.694;2024-02-28T02:34:10;101958.13;;;5.89;88.84
62725;BME280;49026;52.600;4.694;2024-02-28T02:36:37;101945.97;;;5.91;88.90
62725;BME280;49026;52.600;4.694;2024-02-28T02:39:03;101954.69;;;5.97;88.30
62725;BME280;49026;52.600;4.694;2024-02-28T02:41:28;101944.25;;;5.98;88.13
62725;BME280;49026;52.600;4.694;2024-02-28T02:43:55;101947.72;;;6.02;88.83
62725;BME280;49026;52.600;4.694;2024-02-28T02:46:23;101946.81;;;6.03;88.91
62725;BME280;49026;52.600;4.694;2024-02-28T02:48:48;101937.28;;;6.03;88.14
62725;BME280;49026;52.600;4.694;2024-02-28T02:51:13;101939.00;;;6.04;88.17
62725;BME280;49026;52.600;4.694;2024-02-28T02:53:41;101941.59;;;6.07;88.79
62725;BME280;49026;52.600;4.694;2024-02-28T02:56:07;101937.22;;;6.08;88.33
62725;BME280;49026;52.600;4.694;2024-02-28T02:58:32;101943.34;;;6.10;88.82
62725;BME280;49026;52.600;4.694;2024-02-28T03:00:59;101945.91;;;6.13;88.66
62725;BME280;49026;52.600;4.694;2024-02-28T03:03:25;101943.28;;;6.15;89.07
62725;BME280;49026;52.600;4.694;2024-02-28T03:05:50;101941.56;;;6.15;88.27
62725;BME280;49026;52.600;4.694;2024-02-28T03:08:15;101934.59;;;6.16;88.85
62725;BME280;49026;52.600;4.694;2024-02-28T03:10:41;101942.44;;;6.17;89.09
62725;BME280;49026;52.600;4.694;2024-02-28T03:13:06;101934.66;;;6.05;88.93
62725;BME280;49026;52.600;4.694;2024-02-28T03:15:32;101936.41;;;5.89;89.00
62725;BME280;49026;52.600;4.694;2024-02-28T03:17:58;101929.50;;;5.77;89.30
62725;BME280;49026;52.600;4.694;2024-02-28T03:20:23;101933.00;;;5.71;90.11
62725;BME280;49026;52.600;4.694;2024-02-28T03:22:49;101941.69;;;5.70;90.14
62725;BME280;49026;52.600;4.694;2024-02-28T03:25:14;101934.72;;;5.69;90.40
62725;BME280;49026;52.600;4.694;2024-02-28T03:27:39;101926.88;;;5.69;90.50
62725;BME280;49026;52.600;4.694;2024-02-28T03:30:08;101926.88;;;5.71;89.75
62725;BME280;49026;52.600;4.694;2024-02-28T03:32:33;101922.53;;;5.73;90.37
62725;BME280;49026;52.600;4.694;2024-02-28T03:34:58;101923.41;;;5.78;90.10
62725;BME280;49026;52.600;4.694;2024-02-28T03:37:26;101933.81;;;5.80;90.28
62725;BME280;49026;52.600;4.694;2024-02-28T03:39:51;101927.72;;;5.82;89.49
62725;BME280;49026;52.600;4.694;2024-02-28T03:42:16;101927.72;;;5.85;89.59
62725;BME280;49026;52.600;4.694;2024-02-28T03:44:42;101919.91;;;5.88;90.05
62725;BME280;49026;52.600;4.694;2024-02-28T03:47:07;101923.34;;;5.92;90.73
62725;BME280;49026;52.600;4.694;2024-02-28T03:49:32;101931.19;;;5.95;89.71
62725;BME280;49026;52.600;4.694;2024-02-28T03:51:57;101935.53;;;6.01;90.61
62725;BME280;49026;52.600;4.694;2024-02-28T03:54:23;101941.59;;;6.12;91.05
62725;BME280;49026;52.600;4.694;2024-02-28T03:56:51;101938.06;;;6.22;90.07
62725;BME280;49026;52.600;4.694;2024-02-28T03:59:16;101943.25;;;6.32;89.98
62725;BME280;49026;52.600;4.694;2024-02-28T04:01:41;101937.09;;;6.40;89.22
62725;BME280;49026;52.600;4.694;2024-02-28T04:04:06;101932.72;;;6.45;89.86
62725;BME280;49026;52.600;4.694;2024-02-28T04:06:32;101933.56;;;6.49;88.94
62725;BME280;49026;52.600;4.694;2024-02-28T04:08:57;101937.03;;;6.53;88.63
62725;BME280;49026;52.600;4.694;2024-02-28T04:11:26;101943.09;;;6.55;88.85
62725;BME280;49026;52.600;4.694;2024-02-28T04:13:51;101945.69;;;6.56;89.69
62725;BME280;49026;52.600;4.694;2024-02-28T04:16:16;101946.59;;;6.57;89.21
62725;BME280;49026;52.600;4.694;2024-02-28T04:18:44;101944.84;;;6.56;88.95
62725;BME280;49026;52.600;4.694;2024-02-28T04:21:10;101947.47;;;6.56;90.07
62725;BME280;49026;52.600;4.694;2024-02-28T04:23:35;101951.81;;;6.55;89.04
62725;BME280;49026;52.600;4.694;2024-02-28T04:26:00;101949.22;;;6.55;90.29
62725;BME280;49026;52.600;4.694;2024-02-28T04:28:26;101952.69;;;6.57;90.49
62725;BME280;49026;52.600;4.694;2024-02-28T04:30:52;101956.13;;;6.59;89.69
62725;BME280;49026;52.600;4.694;2024-02-28T04:33:17;101956.16;;;6.56;90.14
62725;BME280;49026;52.600;4.694;2024-02-28T04:35:45;101950.94;;;6.56;89.86
62725;BME280;49026;52.600;4.694;2024-02-28T04:38:10;101960.50;;;6.59;90.23
62725;BME280;49026;52.600;4.694;2024-02-28T04:40:37;101957.88;;;6.60;89.92
62725;BME280;49026;52.600;4.694;2024-02-28T04:43:03;101952.66;;;6.63;90.39
62725;BME280;49026;52.600;4.694;2024-02-28T04:45:28;101967.44;;;6.64;90.45
62725;BME280;49026;52.600;4.694;2024-02-28T04:47:54;101957.81;;;6.66;90.11
62725;BME280;49026;52.600;4.694;2024-02-28T04:50:21;101956.09;;;6.68;90.52
62725;BME280;49026;52.600;4.694;2024-02-28T04:52:47;101953.47;;;6.70;90.69
62725;BME280;49026;52.600;4.694;2024-02-28T04:55:12;101957.81;;;6.73;90.01
62725;BME280;49026;52.600;4.694;2024-02-28T04:57:40;101960.41;;;6.73;90.64
62725;BME280;49026;52.600;4.694;2024-02-28T05:00:06;101959.56;;;6.74;90.90
62725;BME280;49026;52.600;4.694;2024-02-28T05:02:33;101964.78;;;6.74;90.51
62725;BME280;49026;52.600;4.694;2024-02-28T05:04:58;101960.41;;;6.76;90.39
62725;BME280;49026;52.600;4.694;2024-02-28T05:07:23;101966.47;;;6.78;90.49
62725;BME280;49026;52.600;4.694;2024-02-28T05:09:49;101963.00;;;6.79;90.26
62725;BME280;49026;52.600;4.694;2024-02-28T05:12:14;101963.84;;;6.79;91.22
62725;BME280;49026;52.600;4.694;2024-02-28T05:14:40;101962.97;;;6.82;90.15
62725;BME280;49026;52.600;4.694;2024-02-28T05:17:07;101961.22;;;6.84;90.87
62725;BME280;49026;52.600;4.694;2024-02-28T05:19:33;101961.22;;;6.87;90.37
62725;BME280;49026;52.600;4.694;2024-02-28T05:21:58;101962.06;;;6.89;90.81
62725;BME280;49026;52.600;4.694;2024-02-28T05:24:26;101966.38;;;6.93;90.62
62725;BME280;49026;52.600;4.694;2024-02-28T05:26:52;101965.50;;;6.94;90.55
62725;BME280;49026;52.600;4.694;2024-02-28T05:29:17;101963.75;;;6.95;90.59
62725;BME280;49026;52.600;4.694;2024-02-28T05:31:42;101963.72;;;7.01;90.99
62725;BME280;49026;52.600;4.694;2024-02-28T05:34:10;101967.16;;;7.03;90.39
62725;BME280;49026;52.600;4.694;2024-02-28T05:36:40;101967.16;;;7.04;90.47
62725;BME280;49026;52.600;4.694;2024-02-28T05:39:05;101961.94;;;7.03;90.13
62725;BME280;49026;52.600;4.694;2024-02-28T05:41:33;101961.09;;;7.02;90.73
62725;BME280;49026;52.600;4.694;2024-02-28T05:43:58;101961.09;;;7.02;90.47
62725;BME280;49026;52.600;4.694;2024-02-28T05:46:23;101969.78;;;7.01;90.89
62725;BME280;49026;52.600;4.694;2024-02-28T05:48:49;101964.56;;;7.04;90.96
62725;BME280;49026;52.600;4.694;2024-02-28T05:51:20;101961.94;;;7.04;90.55
62725;BME280;49026;52.600;4.694;2024-02-28T05:53:45;101960.22;;;7.02;90.91
62725;BME280;49026;52.600;4.694;2024-02-28T05:56:12;101955.88;;;7.02;91.03
62725;BME280;49026;52.600;4.694;2024-02-28T05:58:43;101962.84;;;7.03;90.81
62725;BME280;49026;52.600;4.694;2024-02-28T06:01:10;101960.25;;;7.00;91.02
62725;BME280;49026;52.600;4.694;2024-02-28T06:03:36;101966.34;;;6.96;91.38
62725;BME280;49026;52.600;4.694;2024-02-28T06:06:02;101962.88;;;6.94;91.28
62725;BME280;49026;52.600;4.694;2024-02-28T06:08:33;101968.97;;;6.96;90.84
62725;BME280;49026;52.600;4.694;2024-02-28T06:10:59;101975.03;;;7.01;91.04
62725;BME280;49026;52.600;4.694;2024-02-28T06:13:24;101980.25;;;7.03;91.03
62725;BME280;49026;52.600;4.694;2024-02-28T06:15:49;101982.88;;;7.01;91.24
62725;BME280;49026;52.600;4.694;2024-02-28T06:18:14;101975.91;;;7.00;91.08
62725;BME280;49026;52.600;4.694;2024-02-28T06:20:40;101978.53;;;6.99;91.03
62725;BME280;49026;52.600;4.694;2024-02-28T06:23:05;101982.03;;;6.98;90.70
62725;BME280;49026;52.600;4.694;2024-02-28T06:25:30;101989.88;;;6.96;90.73
62725;BME280;49026;52.600;4.694;2024-02-28T06:27:59;101984.63;;;6.96;91.10
62725;BME280;49026;52.600;4.694;2024-02-28T06:30:27;101994.22;;;6.97;91.63
62725;BME280;49026;52.600;4.694;2024-02-28T06:32:52;101995.94;;;7.00;90.91
62725;BME280;49026;52.600;4.694;2024-02-28T06:35:17;101995.06;;;7.01;90.76
62725;BME280;49026;52.600;4.694;2024-02-28T06:37:42;101995.91;;;7.04;91.04
62725;BME280;49026;52.600;4.694;2024-02-28T06:40:13;102000.25;;;7.07;91.00
62725;BME280;49026;52.600;4.694;2024-02-28T06:42:42;102000.25;;;7.07;91.36
62725;BME280;49026;52.600;4.694;2024-02-28T06:45:07;102010.72;;;7.07;91.29
62725;BME280;49026;52.600;4.694;2024-02-28T06:47:33;102002.88;;;7.07;91.07
62725;BME280;49026;52.600;4.694;2024-02-28T06:49:59;102006.34;;;7.08;91.17
62725;BME280;49026;52.600;4.694;2024-02-28T06:52:24;102007.22;;;7.08;91.17
62725;BME280;49026;52.600;4.694;2024-02-28T06:54:50;102005.47;;;7.10;91.22
62725;BME280;49026;52.600;4.694;2024-02-28T06:57:16;102003.72;;;7.12;91.46
62725;BME280;49026;52.600;4.694;2024-02-28T06:59:44;102008.09;;;7.12;91.58
62725;BME280;49026;52.600;4.694;2024-02-28T07:02:09;102003.72;;;7.11;91.59
62725;BME280;49026;52.600;4.694;2024-02-28T07:04:34;102009.81;;;7.10;90.79
62725;BME280;49026;52.600;4.694;2024-02-28T07:07:01;102013.31;;;7.09;91.34
62725;BME280;49026;52.600;4.694;2024-02-28T07:09:29;101999.38;;;7.07;90.77
62725;BME280;49026;52.600;4.694;2024-02-28T07:11:56;102002.03;;;7.03;91.13
62725;BME280;49026;52.600;4.694;2024-02-28T07:14:24;101999.44;;;7.00;90.89
62725;BME280;49026;52.600;4.694;2024-02-28T07:16:49;102009.91;;;6.97;91.32
62725;BME280;49026;52.600;4.694;2024-02-28T07:19:17;102002.06;;;6.96;92.12
62725;BME280;49026;52.600;4.694;2024-02-28T07:21:43;102013.38;;;6.98;93.00
62725;BME280;49026;52.600;4.694;2024-02-28T07:24:08;102014.22;;;7.03;91.73
62725;BME280;49026;52.600;4.694;2024-02-28T07:26:33;102021.16;;;7.12;93.41
62725;BME280;49026;52.600;4.694;2024-02-28T07:28:58;102016.72;;;7.20;93.24
62725;BME280;49026;52.600;4.694;2024-02-28T07:31:27;102021.91;;;7.26;92.81
62725;BME280;49026;52.600;4.694;2024-02-28T07:33:52;102023.66;;;7.27;92.74
62725;BME280;49026;52.600;4.694;2024-02-28T07:36:20;102025.34;;;7.31;92.12
62725;BME280;49026;52.600;4.694;2024-02-28T07:38:45;102024.47;;;7.35;92.94
62725;BME280;49026;52.600;4.694;2024-02-28T07:41:13;102029.63;;;7.40;92.26
62725;BME280;49026;52.600;4.694;2024-02-28T07:43:42;102033.13;;;7.42;92.31
62725;BME280;49026;52.600;4.694;2024-02-28T07:46:10;102022.66;;;7.44;92.45
62725;BME280;49026;52.600;4.694;2024-02-28T07:48:37;102026.13;;;7.42;92.47
62725;BME280;49026;52.600;4.694;2024-02-28T07:51:09;102040.06;;;7.43;92.13
62725;BME280;49026;52.600;4.694;2024-02-28T07:53:36;102042.59;;;7.57;93.35
62725;BME280;49026;52.600;4.694;2024-02-28T07:56:15;102045.91;;;7.77;94.31
62725;BME280;49026;52.600;4.694;2024-02-28T07:58:40;102051.78;;;8.01;93.91
62725;BME280;49026;52.600;4.694;2024-02-28T08:01:06;102050.75;;;8.14;93.58
62725;BME280;49026;52.600;4.694;2024-02-28T08:03:31;102043.72;;;8.21;94.10
62725;BME280;49026;52.600;4.694;2024-02-28T08:05:57;102058.47;;;8.28;95.14
62725;BME280;49026;52.600;4.694;2024-02-28T08:08:22;102059.34;;;8.29;94.60
62725;BME280;49026;52.600;4.694;2024-02-28T08:10:47;102067.25;;;8.23;93.67
62725;BME280;49026;52.600;4.694;2024-02-28T08:13:16;102075.13;;;8.23;94.44
62725;BME280;49026;52.600;4.694;2024-02-28T08:15:42;102082.09;;;8.24;94.12
62725;BME280;49026;52.600;4.694;2024-02-28T08:18:07;102085.53;;;8.29;94.11
62725;BME280;49026;52.600;4.694;2024-02-28T08:20:32;102085.59;;;8.23;92.99
62725;BME280;49026;52.600;4.694;2024-02-28T08:22:58;102094.44;;;8.12;93.03
62725;BME280;49026;52.600;4.694;2024-02-28T08:25:23;102099.84;;;7.94;92.27
62725;BME280;49026;52.600;4.694;2024-02-28T08:27:51;102099.09;;;7.78;91.91
62725;BME280;49026;52.600;4.694;2024-02-28T08:30:18;102095.66;;;7.70;92.84
62725;BME280;49026;52.600;4.694;2024-02-28T08:32:46;102098.25;;;7.74;94.14
62725;BME280;49026;52.600;4.694;2024-02-28T08:35:12;102098.22;;;7.81;94.28
62725;BME280;49026;52.600;4.694;2024-02-28T08:37:47;102096.34;;;7.93;95.10
62725;BME280;49026;52.600;4.694;2024-02-28T08:40:13;102092.63;;;8.18;96.36
62725;BME280;49026;52.600;4.694;2024-02-28T08:42:38;102089.00;;;8.32;95.08
62725;BME280;49026;52.600;4.694;2024-02-28T08:45:04;102089.75;;;8.42;94.94
62725;BME280;49026;52.600;4.694;2024-02-28T08:47:31;102089.63;;;8.55;94.90
62725;BME280;49026;52.600;4.694;2024-02-28T08:49:59;102092.06;;;8.71;94.64
62725;BME280;49026;52.600;4.694;2024-02-28T08:52:24;102084.94;;;8.83;94.28
62725;BME280;49026;52.600;4.694;2024-02-28T08:54:50;102087.38;;;8.95;94.35
62725;BME280;49026;52.600;4.694;2024-02-28T08:57:15;102088.25;;;8.96;92.77
62725;BME280;49026;52.600;4.694;2024-02-28T08:59:41;102093.50;;;8.96;92.64
62725;BME280;49026;52.600;4.694;2024-02-28T09:02:07;102090.88;;;8.97;92.60
62725;BME280;49026;52.600;4.694;2024-02-28T09:04:36;102089.06;;;9.01;92.85
62725;BME280;49026;52.600;4.694;2024-02-28T09:07:01;102083.63;;;9.13;93.57
62725;BME280;49026;52.600;4.694;2024-02-28T09:09:29;102087.81;;;9.26;93.19
62725;BME280;49026;52.600;4.694;2024-02-28T09:11:57;102090.22;;;9.40;92.02
62725;BME280;49026;52.600;4.694;2024-02-28T09:14:25;102089.25;;;9.49;90.32
62725;BME280;49026;52.600;4.694;2024-02-28T09:16:53;102097.09;;;9.51;88.45
62725;BME280;49026;52.600;4.694;2024-02-28T09:19:23;102091.81;;;9.52;88.64
62725;BME280;49026;52.600;4.694;2024-02-28T09:21:48;102084.91;;;9.46;85.82
62725;BME280;49026;52.600;4.694;2024-02-28T09:24:13;102089.28;;;9.46;86.80
62725;BME280;49026;52.600;4.694;2024-02-28T09:26:42;102088.44;;;9.45;87.06
62725;BME280;49026;52.600;4.694;2024-02-28T09:29:08;102094.53;;;9.46;87.31
62725;BME280;49026;52.600;4.694;2024-02-28T09:31:33;102098.00;;;9.48;88.00
62725;BME280;49026;52.600;4.694;2024-02-28T09:33:59;102102.19;;;9.58;88.76
62725;BME280;49026;52.600;4.694;2024-02-28T09:36:25;102105.66;;;9.60;87.02
62725;BME280;49026;52.600;4.694;2024-02-28T09:38:53;102106.63;;;9.56;86.87
62725;BME280;49026;52.600;4.694;2024-02-28T09:41:19;102097.19;;;9.44;86.70
62725;BME280;49026;52.600;4.694;2024-02-28T09:43:45;102094.66;;;9.37;87.57
62725;BME280;49026;52.600;4.694;2024-02-28T09:46:13;102089.56;;;9.27;87.61
62725;BME280;49026;52.600;4.694;2024-02-28T09:48:41;102090.41;;;9.30;88.36
62725;BME280;49026;52.600;4.694;2024-02-28T09:51:09;102094.69;;;9.34;88.66
62725;BME280;49026;52.600;4.694;2024-02-28T09:53:37;102092.00;;;9.38;88.66
62725;BME280;49026;52.600;4.694;2024-02-28T09:56:03;102083.25;;;9.39;88.88
62725;BME280;49026;52.600;4.694;2024-02-28T09:58:30;102084.81;;;9.53;89.68
62725;BME280;49026;52.600;4.694;2024-02-28T10:00:59;102086.31;;;9.69;89.82
62725;BME280;49026;52.600;4.694;2024-02-28T10:03:24;102087.88;;;9.79;87.69
62725;BME280;49026;52.600;4.694;2024-02-28T10:05:50;102095.69;;;9.82;88.48
62725;BME280;49026;52.600;4.694;2024-02-28T10:08:15;102096.50;;;9.88;89.83
62725;BME280;49026;52.600;4.694;2024-02-28T10:10:48;102083.03;;;10.06;90.46
62725;BME280;49026;52.600;4.694;2024-02-28T10:13:15;102085.44;;;10.17;91.23
62725;BME280;49026;52.600;4.694;2024-02-28T10:15:40;102093.38;;;10.14;90.67
62725;BME280;49026;52.600;4.694;2024-02-28T10:18:06;102087.44;;;10.04;90.27
62725;BME280;49026;52.600;4.694;2024-02-28T10:20:31;102084.00;;;10.00;91.19
62725;BME280;49026;52.600;4.694;2024-02-28T10:22:57;102084.72;;;10.09;91.56
62725;BME280;49026;52.600;4.694;2024-02-28T10:25:24;102084.59;;;10.16;91.49
62725;BME280;49026;52.600;4.694;2024-02-28T10:27:53;102090.59;;;10.23;91.28
62725;BME280;49026;52.600;4.694;2024-02-28T10:30:19;102081.81;;;10.26;91.63
62725;BME280;49026;52.600;4.694;2024-02-28T10:32:51;102085.34;;;10.23;91.64
62725;BME280;49026;52.600;4.694;2024-02-28T10:35:19;102085.41;;;10.20;91.78
62725;BME280;49026;52.600;4.694;2024-02-28T10:37:51;102078.56;;;10.11;91.85
62725;BME280;49026;52.600;4.694;2024-02-28T10:40:16;102083.06;;;10.05;92.11
62725;BME280;49026;52.600;4.694;2024-02-28T10:42:42;102086.56;;;10.04;91.67
62725;BME280;49026;52.600;4.694;2024-02-28T10:45:12;102089.28;;;9.99;91.58
62725;BME280;49026;52.600;4.694;2024-02-28T10:47:40;102082.31;;;9.98;91.73
62725;BME280;49026;52.600;4.694;2024-02-28T10:50:08;102083.09;;;10.03;91.93
62725;BME280;49026;52.600;4.694;2024-02-28T10:52:43;102091.47;;;10.22;92.31
62725;BME280;49026;52.600;4.694;2024-02-28T10:55:09;102073.75;;;10.36;91.48
62725;BME280;49026;52.600;4.694;2024-02-28T10:57:42;102074.47;;;10.43;90.76
62725;BME280;49026;52.600;4.694;2024-02-28T11:00:10;102070.03;;;10.47;90.67
62725;BME280;49026;52.600;4.694;2024-02-28T11:02:37;102079.47;;;10.55;91.63
62725;BME280;49026;52.600;4.694;2024-02-28T11:05:03;102074.00;;;10.68;91.64
62725;BME280;49026;52.600;4.694;2024-02-28T11:07:30;102072.94;;;10.75;91.48
62725;BME280;49026;52.600;4.694;2024-02-28T11:09:56;102073.59;;;10.86;91.00
62725;BME280;49026;52.600;4.694;2024-02-28T11:12:28;102062.13;;;10.89;90.06
62725;BME280;49026;52.600;4.694;2024-02-28T11:15:02;102071.53;;;10.99;90.82
62725;BME280;49026;52.600;4.694;2024-02-28T11:17:29;102066.91;;;11.10;90.24
62725;BME280;49026;52.600;4.694;2024-02-28T11:19:58;102062.38;;;11.17;89.39
62725;BME280;49026;52.600;4.694;2024-02-28T11:22:23;102062.06;;;11.31;90.02
62725;BME280;49026;52.600;4.694;2024-02-28T11:24:49;102055.44;;;11.50;90.59
62725;BME280;49026;52.600;4.694;2024-02-28T11:27:22;102061.38;;;11.59;89.96
62725;BME280;49026;52.600;4.694;2024-02-28T11:29:48;102061.81;;;11.78;89.49
62725;BME280;49026;52.600;4.694;2024-02-28T11:32:14;102075.69;;;11.84;89.62
62725;BME280;49026;52.600;4.694;2024-02-28T11:34:41;102077.72;;;11.73;89.40
62725;BME280;49026;52.600;4.694;2024-02-28T11:37:08;102063.13;;;11.60;89.32
62725;BME280;49026;52.600;4.694;2024-02-28T11:39:33;102064.34;;;11.46;89.13
62725;BME280;49026;52.600;4.694;2024-02-28T11:42:15;102070.38;;;11.12;89.60
62725;BME280;49026;52.600;4.694;2024-02-28T11:44:42;102051.63;;;10.89;89.19
62725;BME280;49026;52.600;4.694;2024-02-28T11:47:10;102059.75;;;10.78;89.99
62725;BME280;49026;52.600;4.694;2024-02-28T11:49:44;102057.16;;;10.77;89.57
62725;BME280;49026;52.600;4.694;2024-02-28T11:52:09;102057.28;;;11.11;90.18
62725;BME280;49026;52.600;4.694;2024-02-28T11:54:36;102067.44;;;11.62;88.15
62725;BME280;49026;52.600;4.694;2024-02-28T11:57:03;102068.06;;;12.08;87.57
62725;BME280;49026;52.600;4.694;2024-02-28T11:59:29;102065.75;;;12.29;87.26
62725;BME280;49026;52.600;4.694;2024-02-28T12:01:54;102062.22;;;12.30;87.30
62725;BME280;49026;52.600;4.694;2024-02-28T12:04:20;102069.97;;;12.66;89.34
62725;BME280;49026;52.600;4.694;2024-02-28T12:06:50;102062.00;;;12.67;88.19
62725;BME280;49026;52.600;4.694;2024-02-28T12:09:16;102070.53;;;12.46;88.27
62725;BME280;49026;52.600;4.694;2024-02-28T12:11:43;102063.47;;;12.16;82.45
62725;BME280;49026;52.600;4.694;2024-02-28T12:14:16;102065.53;;;12.03;85.34
62725;BME280;49026;52.600;4.694;2024-02-28T12:16:43;102064.50;;;12.09;87.53
62725;BME280;49026;52.600;4.694;2024-02-28T12:19:11;102051.47;;;12.04;88.35
62725;BME280;49026;52.600;4.694;2024-02-28T12:21:38;102053.03;;;12.12;89.14
62725;BME280;49026;52.600;4.694;2024-02-28T12:24:06;102060.81;;;12.16;87.33
62725;BME280;49026;52.600;4.694;2024-02-28T12:26:32;102062.03;;;12.04;86.02
62725;BME280;49026;52.600;4.694;2024-02-28T12:28:57;102058.19;;;11.82;87.54
62725;BME280;49026;52.600;4.694;2024-02-28T12:31:23;102054.78;;;11.77;88.40
62725;BME280;49026;52.600;4.694;2024-02-28T12:33:51;102049.00;;;11.62;88.55
62725;BME280;49026;52.600;4.694;2024-02-28T12:36:16;102050.25;;;11.47;88.60
62725;BME280;49026;52.600;4.694;2024-02-28T12:38:41;102041.53;;;11.45;88.72
62725;BME280;49026;52.600;4.694;2024-02-28T12:41:09;102045.28;;;11.35;88.13
62725;BME280;49026;52.600;4.694;2024-02-28T12:43:34;102042.84;;;11.27;88.42
62725;BME280;49026;52.600;4.694;2024-02-28T12:46:02;102034.03;;;11.30;88.72
62725;BME280;49026;52.600;4.694;2024-02-28T12:48:27;102040.34;;;11.23;88.07
62725;BME280;49026;52.600;4.694;2024-02-28T12:50:55;102030.03;;;11.13;85.93
62725;BME280;49026;52.600;4.694;2024-02-28T12:53:20;102020.47;;;11.09;87.15
62725;BME280;49026;52.600;4.694;2024-02-28T12:55:48;102021.38;;;11.08;87.83